Time;durP1;ratioP1;P1;durP2;ratioP2;P2;SDS_P1;SDS_P2;PMS_P1;PMS_P2;Temp;Humidity;BMP_temperature;BMP_pressure;BME280_temperature;BME280_humidity;BME280_pressure;Samples;Min_cycle;Max_cycle;Signal;HPM_P1;HPM_P2
2022/11/20 00:01:11;;;;;;;1.30;0.80;;;6.70;99.90;;;;;;5119510;28;20535;-61
2022/11/20 00:03:38;;;;;;;1.20;0.70;;;6.70;99.90;;;;;;5118762;28;20448;-61
2022/11/20 00:06:09;;;;;;;1.10;0.67;;;6.70;99.90;;;;;;5119149;28;20451;-61
2022/11/20 00:08:36;;;;;;;1.83;0.80;;;6.70;99.90;;;;;;5118630;28;20487;-61
2022/11/20 00:11:07;;;;;;;1.60;0.80;;;6.80;99.90;;;;;;5119775;28;20444;-61
2022/11/20 00:13:34;;;;;;;1.70;0.80;;;6.80;99.90;;;;;;5119092;28;20452;-61
2022/11/20 00:16:02;;;;;;;1.00;0.67;;;6.70;99.90;;;;;;5118680;28;20445;-61
2022/11/20 00:18:30;;;;;;;1.00;0.70;;;6.80;99.90;;;;;;5117971;28;20925;-61
2022/11/20 00:21:02;;;;;;;1.10;0.70;;;6.80;99.90;;;;;;5118664;28;20444;-61
2022/11/20 00:23:30;;;;;;;1.20;0.60;;;6.80;99.90;;;;;;5118857;28;20909;-61
2022/11/20 00:25:57;;;;;;;1.13;0.60;;;6.90;99.90;;;;;;5118205;28;20440;-62
2022/11/20 00:28:24;;;;;;;1.10;0.60;;;7.00;99.90;;;;;;5118665;28;20484;-61
2022/11/20 00:30:51;;;;;;;1.63;0.80;;;6.90;99.90;;;;;;5117857;28;20444;-61
2022/11/20 00:33:17;;;;;;;1.00;0.60;;;6.90;99.90;;;;;;5118627;28;20540;-61
2022/11/20 00:35:44;;;;;;;1.63;0.60;;;6.90;99.90;;;;;;5118883;28;20870;-61
2022/11/20 00:38:11;;;;;;;1.07;0.60;;;6.80;99.90;;;;;;5118293;28;20495;-61
2022/11/20 00:40:39;;;;;;;1.83;0.73;;;6.80;99.90;;;;;;5118118;28;20868;-61
2022/11/20 00:43:06;;;;;;;1.27;0.70;;;6.80;99.90;;;;;;5117317;28;20456;-61
2022/11/20 00:45:33;;;;;;;2.83;0.60;;;6.70;99.90;;;;;;5118228;28;20448;-61
2022/11/20 00:47:59;;;;;;;1.20;0.63;;;6.70;99.90;;;;;;5118368;28;20801;-61
2022/11/20 00:50:26;;;;;;;2.43;0.70;;;6.70;99.90;;;;;;5118060;28;20445;-61
2022/11/20 00:52:53;;;;;;;0.87;0.50;;;6.70;99.90;;;;;;5118889;28;20463;-61
2022/11/20 00:55:20;;;;;;;0.70;0.50;;;6.70;99.90;;;;;;5118830;28;20534;-61
2022/11/20 00:57:48;;;;;;;2.37;0.70;;;6.70;99.90;;;;;;5118222;28;20459;-61
2022/11/20 01:00:15;;;;;;;0.80;0.60;;;6.60;99.90;;;;;;5118561;28;20855;-61
2022/11/20 01:02:42;;;;;;;0.93;0.60;;;6.60;99.90;;;;;;5118096;28;20453;-61
2022/11/20 01:05:09;;;;;;;1.00;0.60;;;6.60;99.90;;;;;;5118474;28;20441;-61
2022/11/20 01:07:36;;;;;;;1.27;0.60;;;6.50;99.90;;;;;;5117439;28;20844;-61
2022/11/20 01:10:03;;;;;;;1.20;0.70;;;6.60;99.90;;;;;;5117559;28;20455;-61
2022/11/20 01:12:29;;;;;;;1.17;0.50;;;6.50;99.90;;;;;;5116220;28;20463;-61
2022/11/20 01:14:58;;;;;;;2.63;0.60;;;6.50;99.90;;;;;;5118094;28;20472;-61
2022/11/20 01:17:24;;;;;;;0.90;0.53;;;6.50;99.90;;;;;;5116853;28;20451;-61
2022/11/20 01:19:51;;;;;;;1.37;0.50;;;6.50;99.90;;;;;;5117288;28;20575;-61
2022/11/20 01:22:18;;;;;;;4.33;0.80;;;6.50;99.90;;;;;;5117543;28;20834;-60
2022/11/20 01:24:45;;;;;;;0.93;0.60;;;6.50;99.90;;;;;;5118104;28;20539;-61
2022/11/20 01:27:12;;;;;;;0.90;0.60;;;6.40;99.90;;;;;;5117646;28;20523;-60
2022/11/20 01:29:38;;;;;;;0.83;0.50;;;6.40;99.90;;;;;;5116315;28;20487;-65
2022/11/20 01:32:07;;;;;;;1.10;0.63;;;6.30;99.90;;;;;;5117615;28;20444;-61
2022/11/20 01:34:33;;;;;;;1.00;0.50;;;6.30;99.90;;;;;;5116560;28;20447;-60
2022/11/20 01:37:00;;;;;;;0.70;0.50;;;6.30;99.90;;;;;;5116470;28;20875;-61
2022/11/20 01:39:28;;;;;;;0.87;0.60;;;6.30;99.90;;;;;;5116890;28;20539;-60
2022/11/20 01:44:50;;;;;;;1.23;0.40;;;6.40;99.90;;;;;;5115817;28;20412;-61
2022/11/20 01:47:23;;;;;;;2.60;0.60;;;6.30;99.90;;;;;;5116689;28;20535;-60
2022/11/20 01:49:55;;;;;;;0.93;0.60;;;6.20;99.90;;;;;;5117169;28;20575;-60
2022/11/20 01:52:25;;;;;;;1.00;0.60;;;6.20;99.90;;;;;;5117072;28;20451;-61
2022/11/20 01:55:03;;;;;;;1.10;0.50;;;6.20;99.90;;;;;;5116877;28;20540;-61
2022/11/20 01:57:32;;;;;;;1.03;0.50;;;6.10;99.90;;;;;;5116851;28;20452;-61
2022/11/20 02:00:03;;;;;;;0.60;0.40;;;6.10;99.90;;;;;;5115855;28;20444;-61
2022/11/20 02:02:32;;;;;;;0.90;0.60;;;6.10;99.90;;;;;;5117011;28;20448;-61
2022/11/20 02:05:10;;;;;;;1.37;0.60;;;6.20;99.90;;;;;;5117239;28;20528;-61
2022/11/20 02:07:37;;;;;;;0.60;0.43;;;6.20;99.90;;;;;;5117130;28;20452;-61
2022/11/20 02:10:05;;;;;;;1.60;0.37;;;6.30;99.90;;;;;;5117379;28;20480;-61
2022/11/20 02:15:16;;;;;;;0.80;0.40;;;6.50;99.90;;;;;;5117074;28;20419;-60
2022/11/20 02:17:44;;;;;;;0.77;0.50;;;6.50;99.90;;;;;;5117139;28;20905;-60
2022/11/20 02:20:12;;;;;;;1.10;0.50;;;6.40;99.90;;;;;;5116034;28;20572;-61
2022/11/20 02:22:48;;;;;;;0.87;0.47;;;6.40;99.90;;;;;;5115818;28;20454;-60
2022/11/20 02:25:16;;;;;;;0.90;0.60;;;6.40;99.90;;;;;;5116412;28;20524;-60
2022/11/20 02:27:43;;;;;;;0.90;0.50;;;6.20;99.90;;;;;;5116305;28;20456;-61
2022/11/20 02:30:12;;;;;;;1.73;0.63;;;6.20;99.90;;;;;;5116904;28;20486;-60
2022/11/20 02:32:39;;;;;;;0.70;0.40;;;6.20;99.90;;;;;;5117449;28;20538;-61
2022/11/20 02:35:30;;;;;;;1.03;0.50;;;6.10;99.90;;;;;;5117209;28;20452;-61
2022/11/20 02:37:59;;;;;;;0.70;0.40;;;6.10;99.90;;;;;;5116993;28;20456;-61
2022/11/20 02:40:27;;;;;;;1.00;0.40;;;6.00;99.90;;;;;;5115995;28;20444;-60
2022/11/20 02:42:55;;;;;;;1.00;0.53;;;6.00;99.90;;;;;;5116169;28;20456;-61
2022/11/20 02:45:22;;;;;;;0.77;0.50;;;6.10;99.90;;;;;;5116541;28;20818;-60
2022/11/20 02:47:49;;;;;;;1.73;0.50;;;6.10;99.90;;;;;;5116511;28;20491;-60
2022/11/20 02:50:16;;;;;;;2.33;0.60;;;6.10;99.90;;;;;;5116521;28;20575;-61
2022/11/20 02:52:43;;;;;;;0.63;0.40;;;6.10;99.90;;;;;;5116667;28;20452;-61
2022/11/20 02:55:10;;;;;;;0.83;0.50;;;6.10;99.90;;;;;;5116257;28;20540;-60
2022/11/20 02:57:38;;;;;;;0.80;0.50;;;6.10;99.90;;;;;;5115808;28;20539;-61
2022/11/20 03:00:07;;;;;;;0.70;0.40;;;6.10;99.90;;;;;;5116475;28;20868;-60
2022/11/20 03:02:34;;;;;;;0.80;0.50;;;6.10;99.90;;;;;;5116767;28;20457;-60
2022/11/20 03:05:01;;;;;;;0.70;0.47;;;6.10;99.90;;;;;;5116613;28;20484;-60
2022/11/20 03:07:28;;;;;;;0.80;0.50;;;6.30;99.90;;;;;;5116491;28;20574;-61
2022/11/20 03:09:54;;;;;;;0.70;0.50;;;6.20;99.90;;;;;;5116449;28;20480;-60
2022/11/20 03:12:21;;;;;;;1.80;0.50;;;6.20;99.90;;;;;;5120614;28;20443;-60
2022/11/20 03:14:49;;;;;;;1.83;0.40;;;6.10;99.90;;;;;;5120919;28;20883;-60
2022/11/20 03:17:17;;;;;;;1.40;0.43;;;6.10;99.90;;;;;;5120262;28;20444;-60
2022/11/20 03:19:44;;;;;;;2.80;0.50;;;6.10;99.90;;;;;;5120798;28;20758;-60
2022/11/20 03:22:11;;;;;;;1.27;0.47;;;6.10;99.90;;;;;;5120072;28;20875;-60
2022/11/20 03:24:37;;;;;;;0.70;0.47;;;6.10;99.90;;;;;;5120605;28;20439;-60
2022/11/20 03:27:04;;;;;;;0.80;0.60;;;6.10;99.90;;;;;;5120042;28;20466;-60
2022/11/20 03:29:32;;;;;;;1.87;1.03;;;6.10;99.90;;;;;;5118716;28;20487;-60
2022/11/20 03:32:00;;;;;;;0.67;0.50;;;6.10;99.90;;;;;;5120355;28;20487;-60
2022/11/20 03:34:27;;;;;;;2.57;0.47;;;6.10;99.90;;;;;;5120712;28;20457;-60
2022/11/20 03:36:54;;;;;;;1.43;0.50;;;6.00;99.90;;;;;;5120298;28;20455;-60
2022/11/20 03:39:20;;;;;;;0.90;0.60;;;6.00;99.90;;;;;;5120492;28;20523;-61
2022/11/20 03:41:47;;;;;;;1.33;0.50;;;6.10;99.90;;;;;;5118945;28;20533;-61
2022/11/20 03:44:14;;;;;;;0.90;0.60;;;6.10;99.90;;;;;;5118534;28;20448;-61
2022/11/20 03:46:41;;;;;;;0.80;0.57;;;6.00;99.90;;;;;;5117578;28;20459;-61
2022/11/20 03:49:09;;;;;;;1.40;0.67;;;5.90;99.90;;;;;;5119556;28;20914;-61
2022/11/20 03:51:36;;;;;;;1.10;0.77;;;5.90;99.90;;;;;;5118186;28;20447;-60
2022/11/20 03:54:05;;;;;;;0.97;0.60;;;5.80;99.90;;;;;;5117672;28;20468;-60
2022/11/20 03:56:34;;;;;;;2.10;0.80;;;5.80;99.90;;;;;;5118922;28;20449;-60
2022/11/20 03:59:01;;;;;;;1.00;0.53;;;5.80;99.90;;;;;;5118641;28;20444;-60
2022/11/20 04:01:30;;;;;;;1.10;0.60;;;5.70;99.90;;;;;;5118659;28;20463;-60
2022/11/20 04:03:58;;;;;;;1.33;0.57;;;5.70;99.90;;;;;;5118560;28;20543;-60
2022/11/20 04:06:28;;;;;;;1.40;0.60;;;5.70;99.90;;;;;;5117903;28;20743;-60
2022/11/20 04:08:55;;;;;;;1.43;0.70;;;5.60;99.90;;;;;;5118681;28;20669;-60
2022/11/20 04:11:24;;;;;;;1.30;0.70;;;5.60;99.90;;;;;;5118568;28;20814;-60
2022/11/20 04:13:54;;;;;;;0.80;0.60;;;5.60;99.90;;;;;;5119178;28;20478;-60
2022/11/20 04:16:22;;;;;;;1.00;0.77;;;5.60;99.90;;;;;;5119069;28;20458;-60
2022/11/20 04:18:52;;;;;;;0.80;0.60;;;5.60;99.90;;;;;;5119050;28;20480;-60
2022/11/20 04:21:19;;;;;;;1.23;0.77;;;5.50;99.90;;;;;;5119295;28;20502;-60
2022/11/20 04:23:47;;;;;;;1.00;0.70;;;5.50;99.90;;;;;;5118268;28;20453;-60
2022/11/20 04:26:14;;;;;;;1.10;0.60;;;5.50;99.90;;;;;;5118975;28;20716;-60
2022/11/20 04:28:41;;;;;;;1.50;0.70;;;5.50;99.90;;;;;;5119337;28;20459;-60
2022/11/20 04:31:10;;;;;;;1.40;0.60;;;5.40;99.90;;;;;;5119106;28;20527;-61
2022/11/20 04:33:37;;;;;;;1.60;0.70;;;5.60;99.90;;;;;;5119431;28;20450;-60
2022/11/20 04:36:06;;;;;;;0.77;0.57;;;5.60;99.90;;;;;;5119265;28;20451;-61
2022/11/20 04:38:34;;;;;;;0.80;0.60;;;5.70;99.90;;;;;;5119332;28;20448;-60
2022/11/20 04:41:04;;;;;;;1.00;0.67;;;5.70;99.90;;;;;;5118763;28;20876;-60
2022/11/20 04:43:31;;;;;;;0.97;0.70;;;5.60;99.90;;;;;;5118780;28;20452;-60
2022/11/20 04:45:59;;;;;;;0.80;0.50;;;5.60;99.90;;;;;;5119022;28;20527;-60
2022/11/20 04:48:27;;;;;;;1.20;0.63;;;5.50;99.90;;;;;;5118897;28;20455;-60
2022/11/20 04:50:54;;;;;;;1.90;0.77;;;5.50;99.90;;;;;;5119002;28;20785;-60
2022/11/20 04:53:22;;;;;;;1.73;0.60;;;5.50;99.90;;;;;;5119360;28;20459;-60
2022/11/20 04:55:49;;;;;;;1.27;0.60;;;5.50;99.90;;;;;;5118809;28;20445;-60
2022/11/20 04:58:17;;;;;;;1.90;0.70;;;5.40;99.90;;;;;;5118803;28;20452;-60
2022/11/20 05:00:44;;;;;;;1.67;0.63;;;5.50;99.90;;;;;;5118545;28;20447;-60
2022/11/20 05:03:11;;;;;;;1.47;0.50;;;5.50;99.90;;;;;;5118715;28;20462;-60
2022/11/20 05:05:37;;;;;;;1.07;0.70;;;5.50;99.90;;;;;;5117555;28;20440;-60
2022/11/20 05:08:05;;;;;;;0.90;0.60;;;5.60;99.90;;;;;;5118303;28;20551;-60
2022/11/20 05:10:31;;;;;;;1.17;0.60;;;5.60;99.90;;;;;;5118248;28;20484;-60
2022/11/20 05:12:58;;;;;;;0.90;0.60;;;5.70;99.90;;;;;;5118333;28;20455;-60
2022/11/20 05:15:29;;;;;;;2.03;0.70;;;5.70;99.90;;;;;;5117888;28;20455;-60
2022/11/20 05:17:56;;;;;;;0.80;0.50;;;5.80;99.90;;;;;;5118500;28;20756;-60
2022/11/20 05:20:23;;;;;;;0.90;0.50;;;5.90;99.90;;;;;;5117898;28;20465;-61
2022/11/20 05:22:49;;;;;;;1.10;0.60;;;5.90;99.90;;;;;;5117681;28;20458;-60
2022/11/20 05:25:16;;;;;;;0.90;0.60;;;5.90;99.90;;;;;;5117794;28;20441;-60
2022/11/20 05:27:43;;;;;;;0.80;0.50;;;5.90;99.90;;;;;;5117531;28;20467;-60
2022/11/20 05:30:11;;;;;;;1.40;0.60;;;5.90;99.90;;;;;;5118025;28;20480;-60
2022/11/20 05:32:39;;;;;;;1.00;0.60;;;5.90;99.90;;;;;;5117740;28;20455;-60
2022/11/20 05:35:07;;;;;;;1.10;0.60;;;5.90;99.90;;;;;;5117997;28;20444;-60
2022/11/20 05:37:34;;;;;;;0.90;0.50;;;5.90;99.90;;;;;;5117803;28;20452;-60
2022/11/20 05:40:00;;;;;;;1.53;0.60;;;5.90;99.90;;;;;;5118108;28;20890;-60
2022/11/20 05:42:33;;;;;;;0.77;0.50;;;6.00;99.90;;;;;;5117508;28;20535;-60
2022/11/20 05:45:01;;;;;;;0.90;0.60;;;6.10;99.90;;;;;;5117904;28;20443;-60
2022/11/20 05:47:29;;;;;;;0.80;0.50;;;6.10;99.90;;;;;;5117655;28;20543;-60
2022/11/20 05:49:57;;;;;;;2.17;0.60;;;6.00;99.90;;;;;;5117515;28;20577;-60
2022/11/20 05:52:23;;;;;;;1.70;0.60;;;6.00;99.90;;;;;;5117802;28;20963;-60
2022/11/20 05:54:50;;;;;;;0.90;0.60;;;6.00;99.90;;;;;;5117627;28;20445;-61
2022/11/20 05:57:17;;;;;;;1.23;0.63;;;6.00;99.90;;;;;;5117569;28;20455;-60
2022/11/20 05:59:44;;;;;;;0.80;0.40;;;6.00;99.90;;;;;;5117709;28;20436;-60
2022/11/20 06:02:11;;;;;;;2.23;0.70;;;6.10;99.90;;;;;;5117177;28;20459;-61
2022/11/20 06:04:38;;;;;;;1.10;0.60;;;6.10;99.90;;;;;;5115911;28;20452;-61
2022/11/20 06:07:07;;;;;;;1.10;0.60;;;6.10;99.90;;;;;;5116918;28;20738;-60
2022/11/20 06:09:34;;;;;;;0.80;0.60;;;6.20;99.90;;;;;;5117206;28;20510;-60
2022/11/20 06:12:01;;;;;;;0.70;0.50;;;6.20;99.90;;;;;;5116743;28;20524;-60
2022/11/20 06:14:28;;;;;;;0.90;0.50;;;6.20;99.90;;;;;;5116878;28;20463;-60
2022/11/20 06:16:55;;;;;;;0.90;0.53;;;6.20;99.90;;;;;;5116900;28;20479;-60
2022/11/20 06:19:22;;;;;;;1.47;0.50;;;6.30;99.90;;;;;;5116995;28;20951;-60
2022/11/20 06:21:49;;;;;;;1.00;0.60;;;6.20;99.90;;;;;;5117003;28;20466;-60
2022/11/20 06:24:18;;;;;;;0.60;0.33;;;6.20;99.90;;;;;;5117270;28;20459;-60
2022/11/20 06:26:45;;;;;;;0.80;0.50;;;6.30;99.90;;;;;;5117055;28;20452;-60
2022/11/20 06:29:12;;;;;;;0.87;0.57;;;6.30;99.90;;;;;;5115990;28;20456;-60
2022/11/20 06:31:39;;;;;;;0.63;0.43;;;6.30;99.90;;;;;;5115786;28;20902;-60
2022/11/20 06:34:06;;;;;;;1.00;0.60;;;6.40;99.90;;;;;;5116478;28;20452;-60
2022/11/20 06:36:33;;;;;;;2.20;0.60;;;6.40;99.90;;;;;;5116190;28;20448;-60
2022/11/20 06:39:01;;;;;;;0.80;0.40;;;6.40;99.90;;;;;;5117125;28;20448;-60
2022/11/20 06:41:29;;;;;;;0.70;0.50;;;6.40;99.90;;;;;;5116747;28;20540;-60
2022/11/20 06:43:56;;;;;;;0.80;0.60;;;6.50;99.90;;;;;;5116334;28;20555;-60
2022/11/20 06:46:22;;;;;;;1.53;0.50;;;6.40;99.90;;;;;;5115794;28;20788;-60
2022/11/20 06:48:50;;;;;;;0.80;0.50;;;6.40;99.90;;;;;;5116194;28;20763;-60
2022/11/20 06:51:17;;;;;;;2.83;0.57;;;6.40;99.90;;;;;;5116035;28;20472;-60
2022/11/20 06:53:44;;;;;;;0.80;0.53;;;6.50;99.90;;;;;;5115684;28;20463;-60
2022/11/20 06:56:11;;;;;;;0.60;0.40;;;6.50;99.90;;;;;;5116020;28;20531;-60
2022/11/20 06:58:40;;;;;;;0.50;0.37;;;6.50;99.90;;;;;;5115785;28;20459;-60
2022/11/20 07:01:10;;;;;;;1.20;0.70;;;6.50;99.90;;;;;;5116388;28;20447;-59
2022/11/20 07:03:37;;;;;;;2.60;0.70;;;6.50;99.90;;;;;;5116886;28;20543;-60
2022/11/20 07:06:05;;;;;;;0.87;0.50;;;6.50;99.90;;;;;;5116589;28;20463;-60
2022/11/20 07:08:32;;;;;;;0.90;0.50;;;6.50;99.90;;;;;;5116922;28;20460;-60
2022/11/20 07:11:00;;;;;;;1.80;0.70;;;6.50;99.90;;;;;;5116133;28;20968;-60
2022/11/20 07:13:27;;;;;;;0.97;0.50;;;6.50;99.90;;;;;;5116122;28;20453;-63
2022/11/20 07:15:55;;;;;;;0.70;0.40;;;6.50;99.90;;;;;;5116335;28;20449;-61
2022/11/20 07:18:22;;;;;;;0.90;0.50;;;6.50;99.90;;;;;;5116717;28;20460;-60
2022/11/20 07:20:49;;;;;;;1.70;0.50;;;6.50;99.90;;;;;;5116640;28;20466;-60
2022/11/20 07:23:16;;;;;;;3.00;0.60;;;6.50;99.90;;;;;;5116543;28;20449;-60
2022/11/20 07:25:43;;;;;;;0.70;0.40;;;6.50;99.90;;;;;;5116170;28;20455;-60
2022/11/20 07:28:10;;;;;;;1.37;0.57;;;6.50;99.90;;;;;;5116298;28;20452;-62
2022/11/20 07:30:37;;;;;;;0.80;0.50;;;6.50;99.90;;;;;;5116238;28;20476;-61
2022/11/20 07:33:06;;;;;;;1.60;0.60;;;6.60;99.90;;;;;;5114963;28;20910;-60
2022/11/20 07:35:32;;;;;;;0.90;0.50;;;6.60;99.90;;;;;;5114202;28;20420;-60
2022/11/20 07:37:59;;;;;;;0.82;0.50;;;6.70;99.90;;;;;;5115018;28;20432;-60
2022/11/20 07:40:26;;;;;;;1.40;0.60;;;6.70;99.90;;;;;;5114960;28;20777;-59
2022/11/20 07:42:54;;;;;;;2.20;0.50;;;6.80;99.90;;;;;;5115342;28;20430;-59
2022/11/20 07:45:23;;;;;;;0.70;0.50;;;6.80;99.90;;;;;;5114482;28;20420;-60
2022/11/20 07:47:50;;;;;;;1.10;0.60;;;6.90;99.90;;;;;;5115087;28;20427;-59
2022/11/20 07:50:19;;;;;;;0.80;0.57;;;7.10;99.90;;;;;;5114409;28;20428;-59
2022/11/20 07:52:46;;;;;;;1.00;0.50;;;7.10;99.90;;;;;;5114471;28;20480;-60
2022/11/20 07:55:13;;;;;;;0.70;0.40;;;7.10;99.90;;;;;;5114550;28;20416;-60
2022/11/20 07:57:40;;;;;;;0.80;0.50;;;7.20;99.90;;;;;;5115563;28;20432;-60
2022/11/20 08:00:09;;;;;;;0.80;0.50;;;7.20;99.90;;;;;;5118847;28;20415;-60
2022/11/20 08:02:38;;;;;;;1.30;0.50;;;7.20;99.90;;;;;;5118702;28;20424;-60
2022/11/20 08:05:06;;;;;;;1.20;0.50;;;7.20;99.90;;;;;;5118272;28;20416;-60
2022/11/20 08:07:38;;;;;;;0.80;0.50;;;7.20;99.90;;;;;;5117680;28;20435;-60
2022/11/20 08:10:05;;;;;;;0.73;0.40;;;7.30;99.90;;;;;;5116618;28;20443;-60
2022/11/20 08:15:17;;;;;;;1.10;0.50;;;7.40;99.90;;;;;;5117030;28;20855;-60
2022/11/20 08:17:43;;;;;;;0.80;0.40;;;7.40;99.90;;;;;;5117578;28;20515;-60
2022/11/20 08:20:11;;;;;;;1.10;0.50;;;7.40;99.90;;;;;;5117728;28;20442;-60
2022/11/20 08:22:39;;;;;;;0.60;0.40;;;7.50;99.90;;;;;;5117679;28;20839;-60
2022/11/20 08:25:06;;;;;;;0.70;0.40;;;7.50;99.90;;;;;;5118133;28;20511;-60
2022/11/20 08:27:33;;;;;;;0.70;0.50;;;7.60;99.90;;;;;;5118082;28;20510;-60
2022/11/20 08:30:00;;;;;;;1.20;0.40;;;7.80;99.90;;;;;;5117517;28;20420;-60
2022/11/20 08:32:27;;;;;;;0.75;0.40;;;7.90;80.70;;;;;;5117218;28;20574;-60
2022/11/20 08:34:54;;;;;;;0.60;0.40;;;8.10;71.60;;;;;;5115626;28;20412;-60
2022/11/20 08:37:20;;;;;;;0.60;0.40;;;8.20;53.30;;;;;;5116249;28;20419;-60
2022/11/20 08:39:49;;;;;;;0.70;0.40;;;8.10;53.70;;;;;;5116175;28;20704;-60
2022/11/20 08:42:15;;;;;;;0.50;0.40;;;8.10;59.70;;;;;;5116178;28;20418;-60
2022/11/20 08:44:42;;;;;;;0.60;0.40;;;8.00;70.20;;;;;;5116163;28;20416;-60
2022/11/20 08:47:09;;;;;;;0.60;0.40;;;8.00;68.00;;;;;;5115725;28;20458;-60
2022/11/20 08:49:36;;;;;;;0.80;0.40;;;8.20;88.40;;;;;;5116625;28;20422;-61
2022/11/20 08:52:03;;;;;;;0.60;0.30;;;8.30;54.90;;;;;;5116813;28;20428;-60
2022/11/20 08:54:30;;;;;;;0.80;0.40;;;8.50;44.00;;;;;;5117350;28;20835;-60
2022/11/20 08:56:58;;;;;;;0.73;0.40;;;8.60;30.60;;;;;;5115910;28;20420;-60
2022/11/20 08:59:25;;;;;;;0.70;0.40;;;8.60;24.20;;;;;;5116684;28;20707;-61
2022/11/20 09:01:51;;;;;;;0.60;0.40;;;8.70;37.40;;;;;;5115336;28;20420;-61
2022/11/20 09:04:18;;;;;;;0.80;0.32;;;8.80;17.50;;;;;;5115251;28;20424;-61
2022/11/20 09:06:45;;;;;;;0.50;0.30;;;8.90;27.70;;;;;;5116573;28;20416;-60
2022/11/20 09:09:12;;;;;;;0.50;0.30;;;8.90;1.60;;;;;;5116262;28;20455;-60
2022/11/20 09:11:39;;;;;;;0.60;0.40;;;8.90;1.50;;;;;;5116564;28;20450;-60
2022/11/20 09:14:07;;;;;;;0.40;0.30;;;9.00;11.10;;;;;;5116678;28;20497;-61
2022/11/20 09:16:34;;;;;;;0.60;0.30;;;9.10;19.00;;;;;;5117040;28;20412;-61
2022/11/20 09:19:00;;;;;;;0.50;0.30;;;9.10;20.30;;;;;;5117040;28;20526;-61
2022/11/20 09:21:27;;;;;;;0.50;0.40;;;9.00;24.00;;;;;;5116566;28;20420;-61
2022/11/20 09:23:54;;;;;;;1.40;0.30;;;9.20;17.90;;;;;;5117378;28;20843;-61
2022/11/20 09:26:21;;;;;;;0.50;0.20;;;9.10;1.00;;;;;;5116935;28;20524;-62
2022/11/20 09:28:48;;;;;;;0.50;0.30;;;9.10;16.90;;;;;;5116233;28;20924;-61
2022/11/20 09:31:22;;;;;;;0.50;0.20;;;9.20;26.30;;;;;;5116339;28;20508;-62
2022/11/20 09:33:49;;;;;;;0.50;0.30;;;8.90;17.40;;;;;;5115550;28;20490;-61
2022/11/20 09:36:18;;;;;;;0.43;0.20;;;8.90;33.60;;;;;;5115570;28;20451;-61
2022/11/20 09:38:45;;;;;;;0.50;0.30;;;8.80;40.20;;;;;;5115763;28;20431;-61
2022/11/20 09:41:30;;;;;;;0.40;0.20;;;8.80;43.40;;;;;;5110046;28;20424;-61
2022/11/20 09:44:05;;;;;;;0.30;0.20;;;8.80;18.90;;;;;;5107368;28;20898;-60
2022/11/20 09:46:41;;;;;;;0.40;0.20;;;8.70;10.90;;;;;;5111063;28;20750;-60
2022/11/20 09:49:23;;;;;;;0.40;0.20;;;8.70;24.00;;;;;;5107951;28;20480;-60
2022/11/20 09:51:58;;;;;;;0.40;0.20;;;9.00;13.80;;;;;;5105411;28;20428;-60
2022/11/20 09:54:30;;;;;;;0.30;0.20;;;9.00;19.80;;;;;;5110630;28;20447;-60
2022/11/20 09:57:00;;;;;;;0.40;0.20;;;9.00;11.90;;;;;;5103338;28;20747;-60
2022/11/20 09:59:37;;;;;;;0.50;0.20;;;8.90;1.00;;;;;;5111430;28;20607;-61
2022/11/20 10:02:17;;;;;;;0.40;0.20;;;8.80;20.70;;;;;;5111269;28;20430;-60
2022/11/20 10:04:48;;;;;;;1.00;0.20;;;8.90;18.60;;;;;;5106317;28;20435;-61
2022/11/20 10:07:20;;;;;;;0.50;0.20;;;9.20;9.20;;;;;;5112617;28;20438;-60
2022/11/20 10:09:53;;;;;;;0.30;0.20;;;9.10;1.00;;;;;;5114178;28;20759;-60
2022/11/20 10:12:28;;;;;;;0.30;0.20;;;9.00;1.00;;;;;;5113394;28;20427;-60
2022/11/20 10:15:06;;;;;;;0.40;0.20;;;8.70;2.10;;;;;;5112471;28;20438;-61
2022/11/20 10:17:56;;;;;;;0.40;0.20;;;8.80;24.40;;;;;;5112794;28;20435;-61
2022/11/20 10:20:31;;;;;;;0.40;0.20;;;8.70;16.10;;;;;;5110959;28;20953;-60
2022/11/20 10:23:17;;;;;;;0.40;0.20;;;8.70;23.00;;;;;;5111154;28;20507;-60
2022/11/20 10:25:48;;;;;;;1.40;0.20;;;8.80;50.00;;;;;;5107840;28;20438;-60
2022/11/20 10:28:31;;;;;;;0.40;0.20;;;8.90;47.80;;;;;;5110570;28;20728;-59
2022/11/20 10:31:01;;;;;;;0.40;0.20;;;8.80;85.80;;;;;;5108831;28;20710;-60
2022/11/20 10:33:35;;;;;;;0.50;0.30;;;8.70;99.90;;;;;;5111497;28;20443;-58
2022/11/20 10:36:13;;;;;;;1.38;0.40;;;8.40;99.90;;;;;;5110908;28;20474;-59
2022/11/20 10:38:43;;;;;;;0.50;0.30;;;8.30;99.90;;;;;;5106979;28;20420;-58
2022/11/20 10:41:26;;;;;;;0.60;0.30;;;8.20;99.90;;;;;;5115296;28;20416;-59
2022/11/20 10:44:00;;;;;;;0.60;0.30;;;8.20;99.90;;;;;;5106406;28;20421;-58
2022/11/20 10:46:37;;;;;;;0.50;0.30;;;8.20;99.90;;;;;;5095373;28;20432;-57
2022/11/20 10:49:12;;;;;;;0.80;0.30;;;8.10;99.90;;;;;;5094183;28;20429;-58
2022/11/20 10:51:46;;;;;;;1.60;0.30;;;8.00;99.90;;;;;;5111525;28;20428;-58
2022/11/20 10:54:23;;;;;;;0.50;0.20;;;8.10;99.90;;;;;;5114689;28;20420;-58
2022/11/20 10:56:52;;;;;;;0.40;0.20;;;8.20;99.90;;;;;;5113756;28;20412;-59
2022/11/20 10:59:39;;;;;;;0.60;0.30;;;8.20;99.90;;;;;;5115031;28;20419;-59
2022/11/20 11:02:17;;;;;;;0.50;0.20;;;8.10;99.90;;;;;;5114635;28;20418;-59
2022/11/20 11:04:47;;;;;;;0.50;0.30;;;8.10;99.90;;;;;;5115218;28;20424;-58
2022/11/20 11:07:17;;;;;;;0.80;0.30;;;8.20;99.90;;;;;;5115321;28;20434;-58
2022/11/20 11:09:48;;;;;;;1.00;0.40;;;8.30;99.90;;;;;;5115888;28;20415;-59
2022/11/20 11:12:15;;;;;;;0.83;0.30;;;8.40;99.90;;;;;;5101504;28;20744;-58
2022/11/20 11:14:47;;;;;;;0.50;0.30;;;8.50;99.90;;;;;;5094720;28;20524;-59
2022/11/20 11:17:23;;;;;;;0.50;0.20;;;8.50;99.90;;;;;;5094033;28;20414;-59
2022/11/20 11:20:03;;;;;;;0.50;0.30;;;8.50;99.90;;;;;;5102180;28;20898;-60
2022/11/20 11:22:31;;;;;;;0.60;0.30;;;8.70;99.90;;;;;;5114365;28;20514;-59
2022/11/20 11:24:59;;;;;;;0.50;0.30;;;8.70;99.90;;;;;;5114617;28;20422;-59
2022/11/20 11:27:26;;;;;;;0.60;0.30;;;8.80;99.90;;;;;;5113767;28;20426;-59
2022/11/20 11:30:04;;;;;;;0.60;0.40;;;8.60;99.90;;;;;;5113081;28;20420;-59
2022/11/20 11:32:31;;;;;;;1.40;0.30;;;8.40;99.90;;;;;;5102396;28;20433;-59
2022/11/20 11:35:03;;;;;;;0.60;0.40;;;8.40;99.90;;;;;;5096858;28;20418;-59
2022/11/20 11:37:35;;;;;;;0.90;0.40;;;8.80;99.90;;;;;;5097023;28;20426;-59
2022/11/20 11:40:03;;;;;;;1.00;0.40;;;8.90;99.90;;;;;;5114019;28;20831;-59
2022/11/20 11:42:30;;;;;;;0.80;0.30;;;8.80;99.90;;;;;;5117590;28;20412;-59
2022/11/20 11:45:05;;;;;;;1.50;0.50;;;8.60;99.90;;;;;;5116277;28;20431;-59
2022/11/20 11:47:33;;;;;;;1.40;0.40;;;8.60;99.90;;;;;;5117912;28;20519;-59
2022/11/20 11:50:16;;;;;;;0.90;0.43;;;8.70;99.90;;;;;;5105539;28;20916;-60
2022/11/20 11:52:47;;;;;;;1.10;0.30;;;8.80;99.90;;;;;;5096986;28;20430;-59
2022/11/20 11:55:17;;;;;;;0.77;0.40;;;8.70;99.90;;;;;;5098304;28;20418;-60
2022/11/20 11:57:50;;;;;;;0.70;0.40;;;8.90;99.90;;;;;;5099430;28;20867;-60
2022/11/20 12:00:20;;;;;;;0.80;0.50;;;9.10;99.90;;;;;;5096227;28;20428;-60
2022/11/20 12:02:58;;;;;;;0.50;0.30;;;9.20;99.90;;;;;;5097646;28;20612;-60
2022/11/20 12:05:29;;;;;;;0.80;0.40;;;9.20;56.30;;;;;;5097793;28;20418;-61
2022/11/20 12:08:00;;;;;;;0.60;0.40;;;9.00;80.10;;;;;;5098152;28;20516;-60
2022/11/20 12:10:40;;;;;;;0.70;0.40;;;9.10;99.90;;;;;;5096995;28;20422;-60
2022/11/20 12:13:21;;;;;;;1.00;0.60;;;9.20;98.60;;;;;;5099665;28;20431;-60
2022/11/20 12:15:48;;;;;;;0.60;0.40;;;9.30;74.70;;;;;;5114767;28;20898;-60
2022/11/20 12:18:17;;;;;;;1.10;0.40;;;9.50;58.70;;;;;;5113793;28;20896;-60
2022/11/20 12:20:56;;;;;;;0.93;0.50;;;9.70;33.70;;;;;;5115090;28;20404;-60
2022/11/20 12:23:29;;;;;;;0.85;0.38;;;9.70;29.50;;;;;;5113971;28;20582;-61
2022/11/20 12:26:00;;;;;;;0.70;0.40;;;9.80;26.50;;;;;;5095203;28;20421;-61
2022/11/20 12:28:40;;;;;;;1.00;0.40;;;10.00;23.10;;;;;;5095606;28;20538;-61
2022/11/20 12:31:25;;;;;;;0.50;0.30;;;10.10;1.00;;;;;;5097043;28;20894;-61
2022/11/20 12:34:20;;;;;;;0.60;0.30;;;10.20;1.00;;;;;;5102039;28;20468;-61
2022/11/20 12:36:57;;;;;;;1.40;0.30;;;10.10;1.00;;;;;;5096435;28;20701;-61
2022/11/20 12:39:36;;;;;;;1.00;0.30;;;10.00;1.00;;;;;;5096608;28;20426;-61
2022/11/20 12:45:56;;;;;;;0.82;0.43;;;10.10;1.00;;;;;;5096290;28;20871;-61
2022/11/20 12:48:51;;;;;;;1.10;0.50;;;10.10;1.00;;;;;;5076893;28;20443;-61
2022/11/20 12:51:56;;;;;;;1.00;0.40;;;10.10;1.00;;;;;;5096631;28;20528;-61
2022/11/20 12:54:59;;;;;;;0.70;0.20;;;10.20;99.90;;;;;;5095593;28;20743;-60
2022/11/20 12:57:32;;;;;;;0.70;0.20;;;10.00;1.00;;;;;;5096029;28;20500;-60
2022/11/20 13:00:11;;;;;;;0.60;0.30;;;10.00;99.90;;;;;;5097519;28;20428;-61
2022/11/20 13:02:52;;;;;;;0.40;0.20;;;9.90;45.80;;;;;;5112523;28;20429;-60
2022/11/20 13:05:22;;;;;;;0.30;0.20;;;9.90;1.00;;;;;;5105042;28;20424;-62
2022/11/20 13:07:53;;;;;;;0.50;0.20;;;9.90;99.90;;;;;;5114262;28;20435;-62
2022/11/20 13:10:32;;;;;;;1.00;0.25;;;9.80;99.90;;;;;;5098141;28;20445;-61
2022/11/20 13:13:05;;;;;;;0.40;0.20;;;9.80;99.90;;;;;;5113524;28;20437;-62
2022/11/20 13:15:45;;;;;;;0.40;0.20;;;9.90;1.00;;;;;;5113339;28;20420;-61
2022/11/20 13:18:13;;;;;;;1.00;0.20;;;10.00;99.90;;;;;;5099501;28;20457;-61
2022/11/20 13:20:44;;;;;;;0.60;0.30;;;10.00;99.90;;;;;;5111355;28;20450;-61
2022/11/20 13:23:11;;;;;;;0.40;0.20;;;10.00;1.00;;;;;;5101999;28;20435;-61